Time;durP1;ratioP1;P1;durP2;ratioP2;P2;SDS_P1;SDS_P2;PMS_P1;PMS_P2;Temp;Humidity;BMP_temperature;BMP_pressure;BME280_temperature;BME280_humidity;BME280_pressure;Samples;Min_cycle;Max_cycle;Signal;HPM_P1;HPM_P2
2023/03/31 00:04:36;;;;;;;7.10;1.60;;;;;;;8.34;100.00;95786.81;10451845;28;20192;-73
2023/03/31 00:09:37;;;;;;;2.93;1.30;;;;;;;8.27;100.00;95783.25;10451199;28;20232;-74
2023/03/31 00:14:37;;;;;;;4.20;1.33;;;;;;;8.27;100.00;95772.81;10451456;28;20226;-74
2023/03/31 00:19:40;;;;;;;6.77;1.77;;;;;;;8.22;100.00;95764.66;10451014;28;20195;-74
2023/03/31 00:24:40;;;;;;;3.87;1.50;;;;;;;8.26;100.00;95747.72;10450003;28;20175;-74
2023/03/31 00:29:42;;;;;;;4.87;1.37;;;;;;;8.23;100.00;95750.66;10450866;28;20218;-73
2023/03/31 00:34:43;;;;;;;8.77;1.80;;;;;;;8.25;100.00;95743.47;10432551;28;20219;-74
2023/03/31 00:39:43;;;;;;;6.57;1.67;;;;;;;8.22;100.00;95735.97;10450871;28;20662;-74
2023/03/31 00:45:15;;;;;;;4.97;1.70;;;;;;;8.21;100.00;95743.00;10450789;28;20245;-74
2023/03/31 00:50:28;;;;;;;5.80;1.60;;;;;;;8.34;100.00;95718.97;10449428;28;20695;-74
2023/03/31 00:55:33;;;;;;;4.87;1.43;;;;;;;8.37;100.00;95704.78;10449376;28;20266;-74
2023/03/31 01:00:33;;;;;;;5.47;1.60;;;;;;;8.24;100.00;95699.28;10449980;28;20199;-74
2023/03/31 01:05:53;;;;;;;5.80;1.53;;;;;;;8.20;100.00;95693.59;10450211;28;20203;-73
2023/03/31 01:10:56;;;;;;;6.80;1.70;;;;;;;8.16;100.00;95682.69;10436840;28;20637;-74
2023/03/31 01:15:56;;;;;;;8.07;1.73;;;;;;;8.13;100.00;95675.19;10458396;28;20581;-74
2023/03/31 01:21:24;;;;;;;3.40;1.37;;;;;;;8.11;100.00;95663.28;10439880;28;20676;-74
2023/03/31 01:26:43;;;;;;;4.60;1.43;;;;;;;8.03;100.00;95656.28;10440075;28;20206;-73
2023/03/31 01:31:51;;;;;;;5.60;1.50;;;;;;;7.93;100.00;95653.88;10439409;28;20227;-73
2023/03/31 01:37:18;;;;;;;7.03;1.23;;;;;;;7.76;100.00;95662.69;10439351;28;20240;-73
2023/03/31 01:42:48;;;;;;;6.83;1.53;;;;;;;7.53;100.00;95660.75;10439157;28;20242;-74
2023/03/31 01:47:57;;;;;;;5.73;1.40;;;;;;;7.46;100.00;95649.38;10455706;28;20199;-73
2023/03/31 01:53:06;;;;;;;5.47;1.40;;;;;;;7.46;100.00;95638.94;10422436;28;20223;-74
2023/03/31 01:58:20;;;;;;;9.70;2.00;;;;;;;7.37;100.00;95629.50;10455275;28;20188;-74
2023/03/31 02:03:23;;;;;;;7.90;1.30;;;;;;;7.37;100.00;95625.09;10421976;28;20199;-73
2023/03/31 02:08:28;;;;;;;6.17;1.87;;;;;;;7.10;100.00;95614.00;10438454;28;20192;-74
2023/03/31 02:13:30;;;;;;;6.40;1.93;;;;;;;7.16;100.00;95609.13;10437322;28;20261;-73
2023/03/31 02:18:32;;;;;;;5.70;1.67;;;;;;;7.19;100.00;95604.41;10438268;28;20269;-74
2023/03/31 02:23:35;;;;;;;5.93;1.47;;;;;;;7.05;100.00;95600.66;10452106;28;20192;-73
2023/03/31 02:28:35;;;;;;;7.50;1.70;;;;;;;7.09;100.00;95591.56;10437376;28;20679;-74
2023/03/31 02:33:38;;;;;;;6.47;1.40;;;;;;;7.13;100.00;95582.44;10419590;28;20222;-74
2023/03/31 02:38:43;;;;;;;7.40;1.90;;;;;;;6.99;100.00;95577.06;10454831;28;20224;-74
2023/03/31 02:43:43;;;;;;;10.27;1.70;;;;;;;7.02;100.00;95580.16;10453685;28;20235;-74
2023/03/31 02:48:47;;;;;;;4.30;1.70;;;;;;;7.02;100.00;95559.31;10434845;28;20755;-73
2023/03/31 02:54:11;;;;;;;10.77;2.20;;;;;;;6.93;100.00;95561.09;10437040;28;20216;-73
2023/03/31 02:59:48;;;;;;;178.93;51.40;;;;;;;6.99;100.00;95569.25;10436693;28;20196;-73
2023/03/31 03:05:04;;;;;;;8.83;4.43;;;;;;;6.81;100.00;95552.00;10433446;28;20188;-74
2023/03/31 03:10:19;;;;;;;6.40;1.83;;;;;;;6.82;100.00;95555.44;10416433;28;20278;-75
2023/03/31 03:15:27;;;;;;;8.27;1.73;;;;;;;7.02;100.00;95548.91;10431833;28;20243;-74
2023/03/31 03:20:28;;;;;;;6.47;1.70;;;;;;;7.02;100.00;95541.09;10415574;28;20286;-74
2023/03/31 03:25:29;;;;;;;24.70;10.03;;;;;;;7.04;100.00;95525.31;10414950;28;20184;-73
2023/03/31 03:30:29;;;;;;;17.43;8.23;;;;;;;6.95;100.00;95520.13;10448934;28;20196;-74
2023/03/31 03:35:29;;;;;;;6.67;3.00;;;;;;;6.95;100.00;95520.13;10448758;28;20591;-74
2023/03/31 03:40:30;;;;;;;4.53;1.83;;;;;;;7.31;100.00;95514.53;10448524;28;20606;-73
2023/03/31 03:45:30;;;;;;;7.60;1.57;;;;;;;7.45;100.00;95509.63;10431103;28;20183;-73
2023/03/31 03:50:34;;;;;;;3.73;1.40;;;;;;;7.61;100.00;95506.16;10430632;28;20283;-74
2023/03/31 03:55:35;;;;;;;7.30;1.93;;;;;;;7.75;100.00;95497.66;10447368;28;20230;-74
2023/03/31 04:00:35;;;;;;;10.33;1.97;;;;;;;7.83;100.00;95489.78;10448148;28;20190;-74
2023/03/31 04:05:35;;;;;;;8.07;1.67;;;;;;;7.89;100.00;95470.03;10451758;28;20660;-74
2023/03/31 04:10:36;;;;;;;7.17;1.63;;;;;;;7.97;100.00;95448.34;10434086;28;20569;-74
2023/03/31 04:15:37;;;;;;;5.97;1.50;;;;;;;7.87;100.00;95464.16;10450152;28;20231;-74
2023/03/31 04:20:37;;;;;;;10.47;1.80;;;;;;;7.89;100.00;95448.34;10433556;28;20234;-74
2023/03/31 04:25:37;;;;;;;6.93;1.33;;;;;;;7.78;100.00;95452.16;10451372;28;20241;-74
2023/03/31 04:30:38;;;;;;;6.07;1.70;;;;;;;7.81;100.00;95442.22;10450673;28;20192;-74
2023/03/31 04:35:48;;;;;;;6.63;1.33;;;;;;;7.76;100.00;95435.88;10433169;28;20766;-74
2023/03/31 04:40:50;;;;;;;3.37;1.40;;;;;;;7.76;100.00;95426.25;10432630;28;20242;-74
2023/03/31 04:45:50;;;;;;;7.87;1.37;;;;;;;7.81;100.00;95417.91;10455850;28;20275;-73
2023/03/31 04:50:53;;;;;;;10.13;1.60;;;;;;;7.73;100.00;95405.75;10459120;28;20213;-74
2023/03/31 04:55:54;;;;;;;6.60;1.63;;;;;;;7.85;100.00;95404.38;10458784;28;20280;-73
2023/03/31 05:00:54;;;;;;;10.80;1.83;;;;;;;7.96;100.00;95395.38;10440924;28;20200;-73
2023/03/31 05:05:54;;;;;;;5.67;1.70;;;;;;;7.81;100.00;95397.06;10458747;28;20615;-74
2023/03/31 05:10:55;;;;;;;4.00;1.67;;;;;;;7.75;100.00;95395.97;10440612;28;20670;-73
2023/03/31 05:15:55;;;;;;;21.73;12.40;;;;;;;7.59;100.00;95385.63;10440424;28;20565;-74
2023/03/31 05:20:55;;;;;;;6.33;1.60;;;;;;;7.74;100.00;95377.91;10458217;28;20184;-73
2023/03/31 05:25:56;;;;;;;7.37;3.27;;;;;;;7.65;100.00;95375.31;10457575;28;20238;-73
2023/03/31 05:30:59;;;;;;;5.63;1.60;;;;;;;7.71;100.00;95371.22;10457764;28;20191;-73
2023/03/31 05:36:00;;;;;;;5.90;2.00;;;;;;;7.59;100.00;95357.75;10457444;28;20216;-74
2023/03/31 05:41:00;;;;;;;9.30;2.47;;;;;;;7.89;100.00;95341.44;10439381;28;20250;-73
2023/03/31 05:46:01;;;;;;;5.00;1.70;;;;;;;8.03;100.00;95333.69;10457259;28;20644;-73
2023/03/31 05:51:01;;;;;;;4.53;1.70;;;;;;;8.24;100.00;95320.97;10449439;28;20205;-73
2023/03/31 05:56:04;;;;;;;4.53;1.60;;;;;;;8.36;100.00;95317.78;10454500;28;20280;-74
2023/03/31 06:01:05;;;;;;;9.40;1.67;;;;;;;8.47;100.00;95290.47;10456829;28;20199;-73
2023/03/31 06:06:07;;;;;;;5.47;1.40;;;;;;;8.64;100.00;95290.31;10456251;28;20196;-74
2023/03/31 06:11:09;;;;;;;3.83;1.70;;;;;;;9.57;100.00;95275.75;10428926;28;20199;-74
2023/03/31 06:16:11;;;;;;;5.83;1.33;;;;;;;10.18;100.00;95246.50;10456036;28;20220;-73
2023/03/31 06:21:15;;;;;;;6.23;1.50;;;;;;;10.61;99.76;95211.56;10456143;28;20199;-74
2023/03/31 06:26:17;;;;;;;5.80;1.30;;;;;;;10.33;96.58;95199.31;10437953;28;20249;-74
2023/03/31 06:31:19;;;;;;;8.43;1.47;;;;;;;10.73;99.50;95227.53;10455321;28;20281;-74
2023/03/31 06:36:23;;;;;;;8.30;1.42;;;;;;;10.93;96.59;95209.28;10470665;28;20269;-75
2023/03/31 06:41:23;;;;;;;11.02;1.67;;;;;;;11.02;94.35;95195.00;10454650;28;20216;-74
2023/03/31 06:46:24;;;;;;;9.47;1.50;;;;;;;10.40;94.82;95193.31;10451696;28;20196;-73
2023/03/31 06:51:24;;;;;;;7.83;1.77;;;;;;;10.29;97.02;95200.69;10426620;28;20204;-74
2023/03/31 06:56:26;;;;;;;2.87;1.40;;;;;;;9.95;96.85;95204.88;10432099;28;20219;-73
2023/03/31 07:01:26;;;;;;;9.93;1.77;;;;;;;10.11;96.77;95184.66;10435073;28;20558;-73
2023/03/31 07:06:26;;;;;;;6.30;1.60;;;;;;;10.12;97.18;95194.09;10433412;28;20203;-73
2023/03/31 07:11:27;;;;;;;11.33;1.80;;;;;;;10.04;96.66;95191.66;10452831;28;20221;-73
2023/03/31 07:16:27;;;;;;;9.23;1.70;;;;;;;10.03;97.67;95190.03;10452204;28;20334;-74
2023/03/31 07:21:27;;;;;;;9.07;2.33;;;;;;;9.86;97.04;95187.69;10451042;28;20207;-74
2023/03/31 07:26:28;;;;;;;12.23;1.70;;;;;;;10.10;96.76;95169.94;10451793;28;20184;-74
2023/03/31 07:31:28;;;;;;;6.13;1.63;;;;;;;10.55;94.02;95149.50;10451893;28;20286;-73
2023/03/31 07:36:29;;;;;;;8.23;1.95;;;;;;;11.17;91.04;95134.56;10447027;28;20212;-74
2023/03/31 07:41:29;;;;;;;12.07;2.13;;;;;;;11.26;90.75;95132.56;10443661;28;20212;-75
2023/03/31 07:46:30;;;;;;;8.25;1.67;;;;;;;11.32;88.39;95113.41;10410964;28;20275;-75
2023/03/31 07:51:30;;;;;;;11.02;2.30;;;;;;;11.30;89.12;95115.44;10404180;28;20200;-74
2023/03/31 07:56:30;;;;;;;7.22;1.80;;;;;;;10.97;89.06;95108.31;10409823;28;20221;-75
2023/03/31 08:01:31;;;;;;;7.63;1.83;;;;;;;10.82;89.12;95107.69;10391871;28;20275;-74
2023/03/31 08:06:32;;;;;;;6.68;1.40;;;;;;;10.95;88.98;95110.34;10408960;28;20196;-74
2023/03/31 08:11:33;;;;;;;8.82;1.70;;;;;;;11.01;90.19;95138.38;10418061;28;20694;-75
2023/03/31 08:16:36;;;;;;;9.07;1.90;;;;;;;10.92;89.18;95130.88;10428659;28;20299;-76
2023/03/31 08:21:37;;;;;;;4.93;1.60;;;;;;;11.24;88.99;95130.13;10394327;28;20185;-76
2023/03/31 08:26:37;;;;;;;8.85;2.00;;;;;;;11.18;88.89;95122.25;10423859;28;20188;-75
2023/03/31 08:31:38;;;;;;;8.87;2.53;;;;;;;10.79;89.60;95126.41;10413776;28;20193;-75
2023/03/31 08:36:38;;;;;;;7.53;2.20;;;;;;;10.79;91.02;95135.06;10422147;28;20374;-76
2023/03/31 08:41:45;;;;;;;8.05;2.15;;;;;;;10.56;94.08;95145.06;10427861;28;20695;-76
2023/03/31 08:46:45;;;;;;;8.10;2.60;;;;;;;10.04;96.55;95155.81;10441163;28;20329;-76
2023/03/31 08:51:50;;;;;;;5.70;2.07;;;;;;;9.72;100.00;95176.31;10425492;28;20248;-77
2023/03/31 08:56:50;;;;;;;11.67;2.30;;;;;;;9.55;100.00;95169.75;10448329;28;20202;-77
2023/03/31 09:02:07;;;;;;;7.67;2.67;;;;;;;9.58;100.00;95151.88;10448434;28;20215;-76
2023/03/31 09:07:41;;;;;;;6.63;2.43;;;;;;;9.40;100.00;95143.66;10447904;28;20195;-77
2023/03/31 09:12:57;;;;;;;8.37;2.07;;;;;;;9.62;100.00;95126.97;10449071;28;20715;-76
2023/03/31 09:18:03;;;;;;;4.97;2.63;;;;;;;9.80;100.00;95112.59;10447737;28;20188;-75
2023/03/31 09:23:27;;;;;;;7.23;2.47;;;;;;;9.72;100.00;95107.53;10448265;28;20237;-75
2023/03/31 09:28:38;;;;;;;5.23;2.83;;;;;;;9.52;100.00;95097.72;10414375;28;20192;-76
2023/03/31 09:33:42;;;;;;;7.20;2.87;;;;;;;9.55;100.00;95086.09;10455792;28;20215;-75
2023/03/31 09:38:44;;;;;;;8.17;2.30;;;;;;;9.69;100.00;95077.31;10437827;28;20239;-75
2023/03/31 09:43:45;;;;;;;8.87;2.93;;;;;;;9.79;100.00;95079.63;10419337;28;20208;-75
2023/03/31 09:48:53;;;;;;;5.20;2.53;;;;;;;9.87;100.00;95076.84;10422511;28;20216;-75
2023/03/31 09:54:01;;;;;;;8.50;3.27;;;;;;;9.64;100.00;95072.66;10437098;28;20212;-75
2023/03/31 09:59:02;;;;;;;7.50;3.10;;;;;;;9.41;100.00;95066.88;10453846;28;20208;-75
2023/03/31 10:04:07;;;;;;;9.57;3.50;;;;;;;9.35;100.00;95065.03;10454908;28;20180;-75
2023/03/31 10:09:09;;;;;;;8.50;3.20;;;;;;;8.96;100.00;95061.09;10454281;28;20203;-75
2023/03/31 10:14:13;;;;;;;4.57;3.00;;;;;;;8.98;100.00;95053.88;10453357;28;20303;-75
2023/03/31 10:19:32;;;;;;;6.90;2.83;;;;;;;8.87;100.00;95055.19;10434139;28;20192;-76
2023/03/31 10:24:37;;;;;;;6.47;3.30;;;;;;;8.77;100.00;95047.66;10454270;28;20192;-76
2023/03/31 10:29:38;;;;;;;7.23;3.00;;;;;;;8.77;100.00;95047.66;10436166;28;20200;-76
2023/03/31 10:34:41;;;;;;;2.20;2.00;;;;;;;8.61;100.00;95030.44;10452783;28;20208;-76
2023/03/31 10:39:42;;;;;;;6.53;3.13;;;;;;;8.63;100.00;95014.59;10406241;28;20240;-75
2023/03/31 10:44:42;;;;;;;4.57;3.00;;;;;;;8.75;100.00;95011.28;10421171;28;20191;-75
2023/03/31 10:49:43;;;;;;;6.53;2.33;;;;;;;8.82;100.00;94990.47;10450245;28;20609;-74
2023/03/31 10:54:50;;;;;;;6.43;3.10;;;;;;;8.85;100.00;94984.88;10434329;28;20219;-75
2023/03/31 11:00:11;;;;;;;4.80;2.13;;;;;;;8.70;100.00;94984.94;10453246;28;20202;-75
2023/03/31 11:05:21;;;;;;;4.40;2.30;;;;;;;8.57;100.00;94974.38;10435641;28;20203;-75
2023/03/31 11:10:58;;;;;;;6.27;2.77;;;;;;;8.68;100.00;94973.06;10452094;28;20196;-75
2023/03/31 11:16:07;;;;;;;5.37;2.27;;;;;;;8.50;100.00;94957.84;10451885;28;20255;-75
2023/03/31 11:21:15;;;;;;;3.20;1.93;;;;;;;8.55;100.00;94971.16;10452576;28;20277;-75
2023/03/31 11:26:24;;;;;;;4.40;3.00;;;;;;;8.45;100.00;94962.81;10451909;28;20195;-76
2023/03/31 11:31:36;;;;;;;4.87;2.57;;;;;;;8.17;100.00;94972.16;10412808;28;20215;-76
2023/03/31 11:36:42;;;;;;;4.07;2.00;;;;;;;8.00;100.00;94931.66;10412834;28;20262;-77
2023/03/31 11:41:50;;;;;;;3.17;2.00;;;;;;;7.86;100.00;94910.66;10402093;28;20240;-78
2023/03/31 11:46:55;;;;;;;4.00;1.80;;;;;;;7.72;100.00;94900.25;10393184;28;20184;-77
2023/03/31 11:51:58;;;;;;;2.67;2.00;;;;;;;7.74;100.00;94898.28;10392741;28;20208;-76
2023/03/31 11:57:01;;;;;;;4.13;2.00;;;;;;;7.73;100.00;94900.06;10415142;28;20221;-76
2023/03/31 12:02:22;;;;;;;6.80;2.30;;;;;;;7.82;100.00;94888.53;10434230;28;20199;-76
2023/03/31 12:07:40;;;;;;;3.57;2.20;;;;;;;7.95;100.00;94897.50;10430886;28;20188;-76
2023/03/31 12:12:48;;;;;;;2.80;1.73;;;;;;;7.86;100.00;94876.75;10391753;28;20208;-76
2023/03/31 12:17:56;;;;;;;2.70;2.10;;;;;;;7.77;100.00;94877.88;10375363;28;20617;-75
2023/03/31 12:22:57;;;;;;;3.63;2.03;;;;;;;7.85;100.00;94874.34;10391914;28;20189;-77
2023/03/31 12:27:58;;;;;;;4.83;2.00;;;;;;;7.92;100.00;94862.19;10405883;28;20247;-76
2023/03/31 12:33:12;;;;;;;2.83;1.77;;;;;;;7.93;100.00;94848.16;10424545;28;20212;-75
2023/03/31 12:38:32;;;;;;;4.73;4.00;;;;;;;7.90;100.00;94856.34;10390076;28;20236;-76
2023/03/31 12:44:01;;;;;;;3.90;1.93;;;;;;;8.10;100.00;94848.72;10408209;28;20238;-75
2023/03/31 12:49:36;;;;;;;2.53;1.40;;;;;;;8.10;100.00;94835.69;10408018;28;20250;-77
2023/03/31 12:54:58;;;;;;;2.63;2.03;;;;;;;7.99;100.00;94821.34;10382854;28;20221;-76
2023/03/31 13:00:11;;;;;;;3.30;2.00;;;;;;;8.06;100.00;94818.78;10415525;28;20200;-77
2023/03/31 13:05:45;;;;;;;2.03;1.93;;;;;;;8.18;100.00;94811.25;10428818;28;20185;-77
2023/03/31 13:10:57;;;;;;;2.03;1.60;;;;;;;8.29;100.00;94812.56;10433753;28;20196;-76
2023/03/31 13:16:00;;;;;;;3.47;2.20;;;;;;;8.37;100.00;94794.13;10415076;28;20299;-76
2023/03/31 13:21:03;;;;;;;2.90;1.90;;;;;;;8.40;100.00;94785.94;10401732;28;20279;-76
2023/03/31 13:26:04;;;;;;;10.10;4.70;;;;;;;8.63;100.00;94772.66;10431866;28;20728;-75
2023/03/31 13:31:07;;;;;;;6.20;3.90;;;;;;;8.64;100.00;94773.47;10433146;28;20334;-76
2023/03/31 13:36:16;;;;;;;3.50;2.07;;;;;;;9.01;100.00;94758.38;10447827;28;20234;-76
2023/03/31 13:41:22;;;;;;;1.43;1.03;;;;;;;9.11;100.00;94771.84;10435000;28;20247;-74
2023/03/31 13:46:41;;;;;;;2.40;1.30;;;;;;;8.91;100.00;94754.31;10422011;28;20564;-73
2023/03/31 13:51:50;;;;;;;3.40;1.53;;;;;;;9.24;100.00;94751.00;10414003;28;20279;-73
2023/03/31 13:56:58;;;;;;;1.90;1.13;;;;;;;9.58;100.00;94740.63;10418917;28;20219;-74
2023/03/31 14:02:22;;;;;;;1.77;1.57;;;;;;;9.62;100.00;94747.88;10435103;28;21051;-73
2023/03/31 14:07:32;;;;;;;15.93;8.23;;;;;;;9.35;100.00;94738.38;10405700;28;20216;-73
2023/03/31 14:12:34;;;;;;;1.90;1.50;;;;;;;9.36;100.00;94737.41;10404607;28;20208;-74
2023/03/31 14:17:37;;;;;;;11.90;5.20;;;;;;;10.03;100.00;94726.97;10432787;28;20185;-75
2023/03/31 14:23:12;;;;;;;2.17;1.50;;;;;;;9.54;100.00;94716.72;10432888;28;20176;-75
2023/03/31 14:28:45;;;;;;;2.10;1.37;;;;;;;9.36;100.00;94714.66;10429952;28;20285;-74
2023/03/31 14:33:58;;;;;;;3.60;1.23;;;;;;;10.03;100.00;94722.56;10453308;28;20227;-75
2023/03/31 14:39:04;;;;;;;3.23;1.47;;;;;;;11.51;100.00;94665.22;10434941;28;20365;-74
2023/03/31 14:44:14;;;;;;;2.08;1.42;;;;;;;12.91;94.13;94621.81;10434527;28;20189;-75
2023/03/31 14:49:35;;;;;;;2.17;1.38;;;;;;;13.03;92.46;94635.81;10414481;28;20188;-75
2023/03/31 14:54:37;;;;;;;2.97;1.52;;;;;;;12.78;86.55;94593.88;10411841;28;20220;-76
2023/03/31 14:59:37;;;;;;;2.88;1.30;;;;;;;10.93;91.96;94626.88;10396988;28;20192;-76
2023/03/31 15:04:45;;;;;;;3.42;1.60;;;;;;;11.11;94.89;94650.53;10431402;28;20193;-75
2023/03/31 15:10:35;;;;;;;3.47;1.30;;;;;;;11.37;92.45;94633.84;10439404;28;20576;-74
2023/03/31 15:15:36;;;;;;;4.18;1.60;;;;;;;11.26;90.60;94638.97;10425117;28;20243;-77
2023/03/31 15:20:39;;;;;;;2.63;1.20;;;;;;;11.41;91.95;94648.13;10437961;28;20200;-77
2023/03/31 15:25:41;;;;;;;3.72;1.50;;;;;;;10.97;92.71;94647.19;10426046;28;20189;-76
2023/03/31 15:30:42;;;;;;;5.60;2.00;;;;;;;10.46;95.13;94661.91;10432106;28;20295;-76
2023/03/31 15:35:42;;;;;;;7.97;4.70;;;;;;;10.84;91.72;94631.53;10425925;28;20219;-76
2023/03/31 15:40:43;;;;;;;7.60;3.65;;;;;;;10.80;89.88;94630.38;10427512;28;20235;-76
2023/03/31 15:45:45;;;;;;;3.15;1.20;;;;;;;11.16;88.41;94615.84;10432637;28;20687;-76
2023/03/31 15:50:46;;;;;;;1.85;1.23;;;;;;;11.03;89.57;94612.28;10444899;28;20250;-76
2023/03/31 15:55:54;;;;;;;4.75;1.50;;;;;;;10.47;90.98;94631.31;10436884;28;20982;-75
2023/03/31 16:01:03;;;;;;;2.25;1.10;;;;;;;10.24;90.77;94624.69;10450445;28;20927;-74
2023/03/31 16:06:14;;;;;;;4.57;2.67;;;;;;;10.44;89.90;94618.63;10428626;28;20701;-74
2023/03/31 16:11:19;;;;;;;1.83;1.00;;;;;;;10.32;89.37;94605.34;10448169;28;20275;-75
2023/03/31 16:16:21;;;;;;;5.40;2.10;;;;;;;10.32;89.07;94621.88;10451877;28;20216;-75
2023/03/31 16:21:25;;;;;;;2.83;1.20;;;;;;;10.33;88.61;94627.94;10448384;28;20188;-75
2023/03/31 16:26:27;;;;;;;3.47;1.10;;;;;;;10.09;90.27;94658.16;10433138;28;20194;-75
2023/03/31 16:31:38;;;;;;;3.33;1.03;;;;;;;9.73;90.45;94668.03;10445355;28;20266;-75
2023/03/31 16:36:38;;;;;;;5.37;1.20;;;;;;;9.13;90.54;94654.13;10394303;28;20220;-74
2023/03/31 16:41:38;;;;;;;2.50;1.23;;;;;;;9.21;92.23;94661.78;10407483;28;20580;-75
2023/03/31 16:46:39;;;;;;;3.27;1.20;;;;;;;9.32;92.85;94681.28;10423843;28;20184;-74
2023/03/31 16:51:39;;;;;;;2.77;1.20;;;;;;;9.11;94.91;94683.03;10426624;28;20207;-74
2023/03/31 16:56:40;;;;;;;2.90;1.23;;;;;;;9.25;95.30;94683.91;10428831;28;20250;-74
2023/03/31 17:01:40;;;;;;;2.80;1.90;;;;;;;9.33;95.40;94690.75;10425497;28;20195;-74
2023/03/31 17:06:41;;;;;;;1.47;1.37;;;;;;;9.19;97.48;94680.28;10428148;28;20184;-74
2023/03/31 17:11:41;;;;;;;2.90;1.20;;;;;;;9.05;98.32;94681.22;10429817;28;20211;-74
2023/03/31 17:16:42;;;;;;;4.80;1.60;;;;;;;9.11;97.51;94670.00;10413574;28;20295;-74
2023/03/31 17:21:42;;;;;;;3.10;1.17;;;;;;;8.68;97.68;94678.09;10442345;28;20721;-73
2023/03/31 17:26:43;;;;;;;5.87;1.70;;;;;;;8.70;97.89;94681.34;10448128;28;20826;-75
2023/03/31 17:31:43;;;;;;;4.17;1.37;;;;;;;8.70;98.38;94681.34;10449133;28;20184;-75
2023/03/31 17:36:43;;;;;;;2.97;1.20;;;;;;;8.40;100.00;94697.22;10448852;28;20247;-75
2023/03/31 17:41:45;;;;;;;2.83;1.70;;;;;;;8.49;99.53;94690.88;10449578;28;20216;-75
2023/03/31 17:46:45;;;;;;;3.90;1.40;;;;;;;8.45;99.54;94700.06;10448418;28;20200;-75
2023/03/31 17:51:46;;;;;;;6.03;1.60;;;;;;;8.34;100.00;94706.59;10450527;28;20196;-75
2023/03/31 17:56:49;;;;;;;3.43;1.17;;;;;;;8.47;98.60;94707.72;10456045;28;21037;-74
2023/03/31 18:01:49;;;;;;;4.20;1.23;;;;;;;8.45;98.45;94709.72;10455224;28;20242;-75
2023/03/31 18:06:50;;;;;;;4.70;1.20;;;;;;;8.40;97.06;94711.06;10447460;28;20271;-74
2023/03/31 18:11:50;;;;;;;2.80;1.37;;;;;;;8.31;99.39;94743.50;10428389;28;20366;-74
2023/03/31 18:16:50;;;;;;;5.23;3.53;;;;;;;8.36;99.18;94751.59;10454233;28;20554;-74
2023/03/31 18:21:51;;;;;;;11.40;4.73;;;;;;;8.20;100.00;94752.69;10435841;28;20185;-74
2023/03/31 18:26:51;;;;;;;19.03;8.20;;;;;;;8.28;100.00;94740.50;10432698;28;20195;-74
2023/03/31 18:31:52;;;;;;;6.07;1.70;;;;;;;8.27;100.00;94757.13;10432133;28;20188;-75
2023/03/31 18:36:53;;;;;;;7.33;2.77;;;;;;;8.40;100.00;94765.84;10430619;28;20216;-74
2023/03/31 18:41:53;;;;;;;6.77;1.77;;;;;;;8.31;100.00;94760.97;10431751;28;20240;-74
2023/03/31 18:46:54;;;;;;;5.50;2.13;;;;;;;8.28;100.00;94780.41;10419868;28;20280;-74
2023/03/31 18:51:55;;;;;;;4.97;1.70;;;;;;;8.13;100.00;94785.75;10411088;28;20185;-74
2023/03/31 18:56:55;;;;;;;7.10;1.67;;;;;;;7.85;100.00;94781.28;10411682;28;20224;-75
2023/03/31 19:01:56;;;;;;;9.27;2.53;;;;;;;7.83;100.00;94779.88;10410469;28;20566;-74
2023/03/31 19:06:56;;;;;;;6.37;2.90;;;;;;;7.77;100.00;94784.03;10412064;28;20255;-75
2023/03/31 19:11:57;;;;;;;5.30;2.10;;;;;;;7.81;100.00;94784.44;10411134;28;20188;-75
2023/03/31 19:16:57;;;;;;;7.37;3.47;;;;;;;7.77;100.00;94791.84;10411445;28;20338;-75
2023/03/31 19:21:57;;;;;;;5.77;2.20;;;;;;;7.82;100.00;94801.72;10410928;28;20196;-75
2023/03/31 19:26:58;;;;;;;5.47;1.43;;;;;;;7.80;100.00;94795.88;10410858;28;20192;-75
2023/03/31 19:31:58;;;;;;;3.57;1.37;;;;;;;7.85;100.00;94788.31;10410874;28;20427;-76
2023/03/31 19:37:00;;;;;;;4.97;1.53;;;;;;;7.85;100.00;94773.47;10413266;28;20224;-75
2023/03/31 19:42:01;;;;;;;1.00;0.90;;;;;;;7.87;100.00;94765.47;10429385;28;20239;-75
2023/03/31 19:47:01;;;;;;;5.13;1.90;;;;;;;7.91;100.00;94764.09;10429356;28;20192;-75
2023/03/31 19:52:03;;;;;;;7.30;3.53;;;;;;;7.88;100.00;94766.28;10429441;28;20295;-75
2023/03/31 19:57:03;;;;;;;3.50;1.73;;;;;;;7.98;100.00;94767.56;10411256;28;20245;-75
2023/03/31 20:02:04;;;;;;;6.20;1.20;;;;;;;7.77;100.00;94785.84;10426237;28;20614;-75
2023/03/31 20:07:04;;;;;;;1.53;1.00;;;;;;;7.56;100.00;94794.44;10414120;28;20565;-75
2023/03/31 20:12:05;;;;;;;4.23;1.10;;;;;;;7.28;100.00;94797.78;10408672;28;20250;-74
2023/03/31 20:17:06;;;;;;;3.63;1.10;;;;;;;7.22;100.00;94788.09;10391709;28;20705;-74
2023/03/31 20:22:06;;;;;;;4.97;1.27;;;;;;;7.12;100.00;94791.78;10408928;28;20185;-74
2023/03/31 20:27:07;;;;;;;3.50;1.17;;;;;;;7.08;100.00;94803.53;10408888;28;20184;-74
2023/03/31 20:32:08;;;;;;;1.93;1.10;;;;;;;7.18;100.00;94803.25;10407969;28;20645;-74
2023/03/31 20:37:08;;;;;;;1.50;0.90;;;;;;;7.14;100.00;94810.63;10419270;28;20727;-74
2023/03/31 20:42:09;;;;;;;2.87;1.10;;;;;;;7.10;100.00;94805.97;10407531;28;20271;-75
2023/03/31 20:47:10;;;;;;;2.17;1.00;;;;;;;7.08;100.00;94803.53;10407422;28;20188;-74
2023/03/31 20:52:10;;;;;;;3.40;1.27;;;;;;;7.06;100.00;94800.31;10407948;28;20199;-74
2023/03/31 20:57:11;;;;;;;4.10;1.20;;;;;;;7.13;100.00;94809.00;10406869;28;20674;-74
2023/03/31 21:02:11;;;;;;;3.37;1.23;;;;;;;7.21;100.00;94810.69;10406973;28;20573;-74
2023/03/31 21:07:15;;;;;;;4.43;1.20;;;;;;;7.06;100.00;94809.91;10407365;28;20310;-73
2023/03/31 21:12:15;;;;;;;5.77;1.43;;;;;;;7.04;100.00;94804.88;10403836;28;20695;-74
2023/03/31 21:17:15;;;;;;;2.23;1.10;;;;;;;7.04;100.00;94804.09;10407348;28;20257;-74
2023/03/31 21:22:16;;;;;;;4.43;1.80;;;;;;;6.97;100.00;94812.63;10406850;28;20216;-73
2023/03/31 21:27:16;;;;;;;1.30;0.90;;;;;;;6.98;100.00;94813.44;10410331;28;20188;-75
2023/03/31 21:32:17;;;;;;;5.17;1.20;;;;;;;6.92;100.00;94803.75;10413144;28;20266;-74
2023/03/31 21:37:17;;;;;;;4.03;1.07;;;;;;;6.86;100.00;94812.28;10378949;28;1008078;-74
2023/03/31 21:42:18;;;;;;;3.00;0.90;;;;;;;6.81;100.00;94810.22;10414760;28;20336;-74
2023/03/31 21:47:18;;;;;;;3.87;1.17;;;;;;;6.94;100.00;94814.78;10414737;28;20193;-74
2023/03/31 21:52:19;;;;;;;3.40;1.27;;;;;;;6.89;100.00;94814.50;10414164;28;20645;-74
2023/03/31 21:57:20;;;;;;;2.60;1.00;;;;;;;6.86;100.00;94812.28;10414124;28;20695;-74
2023/03/31 22:02:22;;;;;;;5.07;1.10;;;;;;;6.79;100.00;94805.19;10414580;28;20661;-74
2023/03/31 22:07:22;;;;;;;6.97;1.27;;;;;;;6.72;100.00;94809.50;10413532;28;20250;-74
2023/03/31 22:12:23;;;;;;;5.33;1.37;;;;;;;6.73;100.00;94805.91;10413769;28;20269;-74
2023/03/31 22:17:24;;;;;;;4.70;1.03;;;;;;;6.82;100.00;94803.22;10413307;28;20192;-73
2023/03/31 22:22:25;;;;;;;3.23;1.10;;;;;;;6.78;100.00;94798.38;10413101;28;20579;-74
2023/03/31 22:27:25;;;;;;;5.30;1.50;;;;;;;6.72;100.00;94803.47;10412573;28;20203;-74
2023/03/31 22:32:26;;;;;;;7.37;1.60;;;;;;;6.78;100.00;94797.56;10412821;28;20200;-73
2023/03/31 22:37:26;;;;;;;4.17;1.10;;;;;;;6.82;100.00;94803.22;10412112;28;20302;-73
2023/03/31 22:42:27;;;;;;;2.73;1.00;;;;;;;6.85;100.00;94797.66;10412553;28;20213;-74
2023/03/31 22:47:27;;;;;;;2.53;1.10;;;;;;;6.91;100.00;94800.34;10412142;28;20188;-73
2023/03/31 22:52:27;;;;;;;3.40;1.10;;;;;;;6.87;100.00;94798.28;10411774;28;20203;-73
2023/03/31 22:57:28;;;;;;;5.10;1.13;;;;;;;6.84;100.00;94794.22;10411781;28;20634;-74
2023/03/31 23:02:28;;;;;;;1.10;1.00;;;;;;;6.85;100.00;94806.25;10411665;28;20196;-74
2023/03/31 23:07:29;;;;;;;1.00;0.90;;;;;;;6.84;100.00;94807.25;10410792;28;20201;-74
2023/03/31 23:12:29;;;;;;;5.20;1.47;;;;;;;6.88;100.00;94815.50;10411465;28;20199;-74
2023/03/31 23:17:30;;;;;;;1.37;0.97;;;;;;;6.89;100.00;94809.31;10410668;28;20196;-74
2023/03/31 23:22:30;;;;;;;4.23;1.03;;;;;;;6.94;100.00;94806.97;10410947;28;20266;-74
2023/03/31 23:27:30;;;;;;;2.97;1.17;;;;;;;6.97;100.00;94810.03;10410543;28;20675;-73
2023/03/31 23:32:31;;;;;;;3.37;1.60;;;;;;;6.94;100.00;94801.78;10410217;28;20279;-74
2023/03/31 23:37:32;;;;;;;1.50;1.00;;;;;;;6.91;100.00;94807.34;10405087;28;20311;-74